sensor_id;sensor_type;location;lat;lon;timestamp;pressure;altitude;pressure_sealevel;temperature;humidity
64876;BME280;51369;49.862;9.908;2023-04-01T00:00:23;96725.88;;;10.50;76.20
64876;BME280;51369;49.862;9.908;2023-04-01T00:02:48;96730.19;;;10.52;76.42
64876;BME280;51369;49.862;9.908;2023-04-01T00:05:14;96729.13;;;10.55;76.06
64876;BME280;51369;49.862;9.908;2023-04-01T00:07:41;96733.34;;;10.59;76.07
64876;BME280;51369;49.862;9.908;2023-04-01T00:10:08;96731.50;;;10.59;76.05
64876;BME280;51369;49.862;9.908;2023-04-01T00:12:36;96734.97;;;10.61;76.02
64876;BME280;51369;49.862;9.908;2023-04-01T00:15:03;96717.69;;;10.64;75.58
64876;BME280;51369;49.862;9.908;2023-04-01T00:17:28;96725.56;;;10.67;74.92
64876;BME280;51369;49.862;9.908;2023-04-01T00:19:55;96729.03;;;10.69;75.56
64876;BME280;51369;49.862;9.908;2023-04-01T00:22:21;96726.13;;;10.72;75.40
64876;BME280;51369;49.862;9.908;2023-04-01T00:24:47;96723.31;;;10.73;74.73
64876;BME280;51369;49.862;9.908;2023-04-01T00:27:13;96722.34;;;10.74;75.00
64876;BME280;51369;49.862;9.908;2023-04-01T00:29:42;96730.22;;;10.77;75.38
64876;BME280;51369;49.862;9.908;2023-04-01T00:32:07;96729.34;;;10.77;74.91
64876;BME280;51369;49.862;9.908;2023-04-01T00:34:32;96731.94;;;10.79;74.83
64876;BME280;51369;49.862;9.908;2023-04-01T00:36:58;96727.41;;;10.79;74.71
64876;BME280;51369;49.862;9.908;2023-04-01T00:39:23;96724.50;;;10.82;74.70
64876;BME280;51369;49.862;9.908;2023-04-01T00:41:49;96730.78;;;10.83;74.32
64876;BME280;51369;49.862;9.908;2023-04-01T00:44:23;96727.22;;;10.82;74.07
64876;BME280;51369;49.862;9.908;2023-04-01T00:46:49;96720.84;;;10.83;74.71
64876;BME280;51369;49.862;9.908;2023-04-01T00:49:17;96727.22;;;10.82;74.83
64876;BME280;51369;49.862;9.908;2023-04-01T00:51:45;96725.25;;;10.84;75.07
64876;BME280;51369;49.862;9.908;2023-04-01T00:54:14;96728.81;;;10.85;74.78
64876;BME280;51369;49.862;9.908;2023-04-01T00:57:14;96727.09;;;10.84;75.19
64876;BME280;51369;49.862;9.908;2023-04-01T00:59:50;96727.00;;;10.85;74.94
64876;BME280;51369;49.862;9.908;2023-04-01T01:02:18;96731.41;;;10.86;73.84
64876;BME280;51369;49.862;9.908;2023-04-01T01:04:44;96722.47;;;10.86;74.66
64876;BME280;51369;49.862;9.908;2023-04-01T01:10:06;96725.25;;;10.84;74.38
64876;BME280;51369;49.862;9.908;2023-04-01T01:17:50;96719.88;;;10.84;74.78
64876;BME280;51369;49.862;9.908;2023-04-01T01:26:21;96719.00;;;10.84;74.03
64876;BME280;51369;49.862;9.908;2023-04-01T01:32:10;96720.84;;;10.83;74.42
64876;BME280;51369;49.862;9.908;2023-04-01T01:34:50;96713.72;;;10.82;74.34
64876;BME280;51369;49.862;9.908;2023-04-01T01:37:20;96717.28;;;10.83;74.22
64876;BME280;51369;49.862;9.908;2023-04-01T01:39:56;96706.59;;;10.81;74.30
64876;BME280;51369;49.862;9.908;2023-04-01T01:42:25;96704.53;;;10.85;74.20
64876;BME280;51369;49.862;9.908;2023-04-01T01:44:52;96709.06;;;10.84;74.33
64876;BME280;51369;49.862;9.908;2023-04-01T01:47:19;96711.88;;;10.83;74.38
64876;BME280;51369;49.862;9.908;2023-04-01T01:49:47;96712.84;;;10.82;74.59
64876;BME280;51369;49.862;9.908;2023-04-01T01:52:14;96707.56;;;10.80;74.08
64876;BME280;51369;49.862;9.908;2023-04-01T01:54:50;96713.72;;;10.82;74.55
64876;BME280;51369;49.862;9.908;2023-04-01T01:57:18;96708.41;;;10.81;73.80
64876;BME280;51369;49.862;9.908;2023-04-01T01:59:48;96712.94;;;10.80;74.82
64876;BME280;51369;49.862;9.908;2023-04-01T02:02:23;96720.06;;;10.81;74.21
64876;BME280;51369;49.862;9.908;2023-04-01T02:04:51;96702.16;;;10.80;73.54
64876;BME280;51369;49.862;9.908;2023-04-01T02:07:24;96706.91;;;10.76;74.51
64876;BME280;51369;49.862;9.908;2023-04-01T02:09:51;96698.69;;;10.78;74.04
64876;BME280;51369;49.862;9.908;2023-04-01T02:12:19;96688.00;;;10.76;73.76
64876;BME280;51369;49.862;9.908;2023-04-01T02:15:08;96692.66;;;10.74;74.53
64876;BME280;51369;49.862;9.908;2023-04-01T02:17:38;96696.09;;;10.76;73.96
64876;BME280;51369;49.862;9.908;2023-04-01T02:20:17;96704.53;;;10.72;74.67
64876;BME280;51369;49.862;9.908;2023-04-01T02:22:48;96697.28;;;10.72;73.79
64876;BME280;51369;49.862;9.908;2023-04-01T02:25:18;96702.78;;;10.71;73.90
64876;BME280;51369;49.862;9.908;2023-04-01T02:27:45;96703.66;;;10.71;74.49
64876;BME280;51369;49.862;9.908;2023-04-01T02:30:12;96707.34;;;10.70;73.93
64876;BME280;51369;49.862;9.908;2023-04-01T02:32:39;96707.34;;;10.70;74.36
64876;BME280;51369;49.862;9.908;2023-04-01T02:35:07;96708.19;;;10.71;73.38
64876;BME280;51369;49.862;9.908;2023-04-01T02:37:35;96715.31;;;10.72;73.43
64876;BME280;51369;49.862;9.908;2023-04-01T02:40:05;96706.34;;;10.71;74.80
64876;BME280;51369;49.862;9.908;2023-04-01T02:42:35;96709.94;;;10.72;73.42
64876;BME280;51369;49.862;9.908;2023-04-01T02:45:01;96714.47;;;10.71;73.57
64876;BME280;51369;49.862;9.908;2023-04-01T02:47:27;96714.25;;;10.74;73.98
64876;BME280;51369;49.862;9.908;2023-04-01T02:49:52;96710.69;;;10.74;73.60
64876;BME280;51369;49.862;9.908;2023-04-01T02:52:26;96711.53;;;10.74;72.87
64876;BME280;51369;49.862;9.908;2023-04-01T02:54:53;96710.69;;;10.74;72.94
64876;BME280;51369;49.862;9.908;2023-04-01T02:57:18;96710.69;;;10.74;73.47
64876;BME280;51369;49.862;9.908;2023-04-01T02:59:44;96717.91;;;10.73;72.95
64876;BME280;51369;49.862;9.908;2023-04-01T03:02:09;96716.06;;;10.74;73.33
64876;BME280;51369;49.862;9.908;2023-04-01T03:04:35;96712.41;;;10.75;73.28
64876;BME280;51369;49.862;9.908;2023-04-01T03:07:00;96716.84;;;10.76;72.91
64876;BME280;51369;49.862;9.908;2023-04-01T03:09:26;96713.38;;;10.74;73.37
64876;BME280;51369;49.862;9.908;2023-04-01T03:11:52;96714.13;;;10.76;72.46
64876;BME280;51369;49.862;9.908;2023-04-01T03:14:17;96715.97;;;10.75;73.39
64876;BME280;51369;49.862;9.908;2023-04-01T03:16:43;96713.28;;;10.75;72.78
64876;BME280;51369;49.862;9.908;2023-04-01T03:19:08;96708.84;;;10.74;72.66
64876;BME280;51369;49.862;9.908;2023-04-01T03:21:34;96715.22;;;10.73;73.18
64876;BME280;51369;49.862;9.908;2023-04-01T03:24:00;96706.25;;;10.73;72.59
64876;BME280;51369;49.862;9.908;2023-04-01T03:26:27;96712.50;;;10.73;72.71
64876;BME280;51369;49.862;9.908;2023-04-01T03:28:53;96707.22;;;10.72;73.21
64876;BME280;51369;49.862;9.908;2023-04-01T03:31:18;96715.22;;;10.73;72.92
64876;BME280;51369;49.862;9.908;2023-04-01T03:33:50;96709.16;;;10.70;73.36
64876;BME280;51369;49.862;9.908;2023-04-01T03:36:16;96720.94;;;10.69;73.12
64876;BME280;51369;49.862;9.908;2023-04-01T03:38:42;96706.47;;;10.70;73.68
64876;BME280;51369;49.862;9.908;2023-04-01T03:41:15;96716.41;;;10.69;73.72
64876;BME280;51369;49.862;9.908;2023-04-01T03:43:41;96709.16;;;10.70;73.72
64876;BME280;51369;49.862;9.908;2023-04-01T03:46:07;96713.81;;;10.68;73.44
64876;BME280;51369;49.862;9.908;2023-04-01T03:48:33;96715.63;;;10.67;73.58
64876;BME280;51369;49.862;9.908;2023-04-01T03:50:58;96715.53;;;10.69;73.75
64876;BME280;51369;49.862;9.908;2023-04-01T03:53:23;96719.19;;;10.68;72.95
64876;BME280;51369;49.862;9.908;2023-04-01T03:55:50;96711.22;;;10.66;72.94
64876;BME280;51369;49.862;9.908;2023-04-01T03:58:16;96713.81;;;10.68;73.16
64876;BME280;51369;49.862;9.908;2023-04-01T04:00:42;96712.94;;;10.67;73.44
64876;BME280;51369;49.862;9.908;2023-04-01T04:03:08;96719.19;;;10.68;73.54
64876;BME280;51369;49.862;9.908;2023-04-01T04:05:34;96713.81;;;10.68;72.55
64876;BME280;51369;49.862;9.908;2023-04-01T04:08:01;96714.66;;;10.68;73.50
64876;BME280;51369;49.862;9.908;2023-04-01T04:10:26;96713.81;;;10.68;73.18
64876;BME280;51369;49.862;9.908;2023-04-01T04:12:52;96711.22;;;10.66;73.83
64876;BME280;51369;49.862;9.908;2023-04-01T04:15:19;96712.06;;;10.67;73.86
64876;BME280;51369;49.862;9.908;2023-04-01T04:17:45;96714.78;;;10.67;73.61
64876;BME280;51369;49.862;9.908;2023-04-01T04:20:13;96718.44;;;10.66;73.30
64876;BME280;51369;49.862;9.908;2023-04-01T04:22:38;96719.31;;;10.66;72.62
64876;BME280;51369;49.862;9.908;2023-04-01T04:25:06;96711.22;;;10.66;73.01
64876;BME280;51369;49.862;9.908;2023-04-01T04:27:32;96711.22;;;10.66;73.83
64876;BME280;51369;49.862;9.908;2023-04-01T04:30:07;96714.66;;;10.68;73.23
64876;BME280;51369;49.862;9.908;2023-04-01T04:32:34;96711.88;;;10.70;73.12
64876;BME280;51369;49.862;9.908;2023-04-01T04:35:00;96716.41;;;10.69;73.38
64876;BME280;51369;49.862;9.908;2023-04-01T04:37:26;96720.72;;;10.72;73.14
64876;BME280;51369;49.862;9.908;2023-04-01T04:39:52;96714.66;;;10.68;73.39
64876;BME280;51369;49.862;9.908;2023-04-01T04:42:18;96712.84;;;10.69;73.01
64876;BME280;51369;49.862;9.908;2023-04-01T04:44:43;96720.06;;;10.68;73.60
64876;BME280;51369;49.862;9.908;2023-04-01T04:47:09;96714.56;;;10.70;72.91
64876;BME280;51369;49.862;9.908;2023-04-01T04:49:35;96718.34;;;10.67;74.02
64876;BME280;51369;49.862;9.908;2023-04-01T04:52:05;96721.03;;;10.67;73.97
64876;BME280;51369;49.862;9.908;2023-04-01T04:54:30;96719.19;;;10.68;73.23
64876;BME280;51369;49.862;9.908;2023-04-01T04:56:58;96720.94;;;10.69;73.37
64876;BME280;51369;49.862;9.908;2023-04-01T04:59:25;96711.97;;;10.68;74.09
64876;BME280;51369;49.862;9.908;2023-04-01T05:02:17;96713.81;;;10.68;73.45
64876;BME280;51369;49.862;9.908;2023-04-01T05:04:42;96712.94;;;10.67;74.08
64876;BME280;51369;49.862;9.908;2023-04-01T05:07:09;96715.75;;;10.66;73.41
64876;BME280;51369;49.862;9.908;2023-04-01T05:09:34;96714.88;;;10.65;73.96
64876;BME280;51369;49.862;9.908;2023-04-01T05:12:01;96720.28;;;10.65;73.50
64876;BME280;51369;49.862;9.908;2023-04-01T05:14:33;96712.28;;;10.64;73.86
64876;BME280;51369;49.862;9.908;2023-04-01T05:17:09;96719.53;;;10.63;74.12
64876;BME280;51369;49.862;9.908;2023-04-01T05:19:35;96717.78;;;10.62;73.75
64876;BME280;51369;49.862;9.908;2023-04-01T05:22:00;96718.00;;;10.59;74.21
64876;BME280;51369;49.862;9.908;2023-04-01T05:24:26;96718.13;;;10.58;74.16
64876;BME280;51369;49.862;9.908;2023-04-01T05:26:51;96719.94;;;10.57;74.59
64876;BME280;51369;49.862;9.908;2023-04-01T05:29:17;96710.22;;;10.55;74.19
64876;BME280;51369;49.862;9.908;2023-04-01T05:31:45;96713.91;;;10.54;75.21
64876;BME280;51369;49.862;9.908;2023-04-01T05:34:11;96714.97;;;10.51;75.04
64876;BME280;51369;49.862;9.908;2023-04-01T05:36:37;96720.47;;;10.50;74.06
64876;BME280;51369;49.862;9.908;2023-04-01T05:39:02;96713.34;;;10.49;74.01
64876;BME280;51369;49.862;9.908;2023-04-01T05:41:28;96706.22;;;10.48;74.39
64876;BME280;51369;49.862;9.908;2023-04-01T05:43:54;96715.28;;;10.47;74.57
64876;BME280;51369;49.862;9.908;2023-04-01T05:46:51;96715.19;;;10.48;74.56
64876;BME280;51369;49.862;9.908;2023-04-01T05:49:22;96704.50;;;10.47;74.80
64876;BME280;51369;49.862;9.908;2023-04-01T05:51:48;96709.88;;;10.47;74.14
64876;BME280;51369;49.862;9.908;2023-04-01T05:54:14;96717.13;;;10.46;74.71
64876;BME280;51369;49.862;9.908;2023-04-01T05:56:40;96720.69;;;10.47;73.98
64876;BME280;51369;49.862;9.908;2023-04-01T05:59:06;96718.84;;;10.47;74.31
64876;BME280;51369;49.862;9.908;2023-04-01T06:01:31;96716.16;;;10.47;75.27
64876;BME280;51369;49.862;9.908;2023-04-01T06:03:57;96712.59;;;10.47;74.14
64876;BME280;51369;49.862;9.908;2023-04-01T06:06:26;96712.59;;;10.47;74.71
64876;BME280;51369;49.862;9.908;2023-04-01T06:08:58;96713.25;;;10.50;74.11
64876;BME280;51369;49.862;9.908;2023-04-01T06:14:20;96715.94;;;10.50;74.35
64876;BME280;51369;49.862;9.908;2023-04-01T06:17:17;96724.03;;;10.50;74.32
64876;BME280;51369;49.862;9.908;2023-04-01T06:22:33;96709.16;;;10.57;74.54
64876;BME280;51369;49.862;9.908;2023-04-01T06:30:57;96715.00;;;10.64;74.53
64876;BME280;51369;49.862;9.908;2023-04-01T06:44:57;96720.50;;;10.75;72.94
64876;BME280;51369;49.862;9.908;2023-04-01T06:53:58;96724.28;;;10.85;74.84
64876;BME280;51369;49.862;9.908;2023-04-01T06:56:55;96725.47;;;10.94;74.48
64876;BME280;51369;49.862;9.908;2023-04-01T06:59:32;96716.84;;;11.01;74.76
64876;BME280;51369;49.862;9.908;2023-04-01T07:04:37;96711.09;;;11.19;74.30
64876;BME280;51369;49.862;9.908;2023-04-01T07:07:13;96715.97;;;11.26;72.97
64876;BME280;51369;49.862;9.908;2023-04-01T07:09:51;96721.56;;;11.36;73.59
64876;BME280;51369;49.862;9.908;2023-04-01T07:15:22;96715.28;;;11.48;74.45
64876;BME280;51369;49.862;9.908;2023-04-01T07:17:54;96712.88;;;11.56;73.87
64876;BME280;51369;49.862;9.908;2023-04-01T07:20:31;96707.34;;;11.58;73.28
64876;BME280;51369;49.862;9.908;2023-04-01T07:22:59;96709.50;;;11.65;73.41
64876;BME280;51369;49.862;9.908;2023-04-01T07:25:36;96711.00;;;11.69;72.81
64876;BME280;51369;49.862;9.908;2023-04-01T07:28:30;96707.97;;;11.74;73.63
64876;BME280;51369;49.862;9.908;2023-04-01T07:31:30;96707.75;;;11.77;73.34
64876;BME280;51369;49.862;9.908;2023-04-01T07:53:46;96721.53;;;11.98;71.79
64876;BME280;51369;49.862;9.908;2023-04-01T07:56:30;96719.69;;;11.98;72.19
64876;BME280;51369;49.862;9.908;2023-04-01T08:17:05;96727.97;;;11.84;72.39
64876;BME280;51369;49.862;9.908;2023-04-01T08:22:25;96732.41;;;11.85;73.31
64876;BME280;51369;49.862;9.908;2023-04-01T08:24:55;96741.16;;;11.89;73.34
64876;BME280;51369;49.862;9.908;2023-04-01T08:27:31;96743.63;;;11.92;73.65
64876;BME280;51369;49.862;9.908;2023-04-01T08:32:49;96750.66;;;11.94;72.58
64876;BME280;51369;49.862;9.908;2023-04-01T08:35:37;96754.31;;;11.93;73.77
64876;BME280;51369;49.862;9.908;2023-04-01T08:38:13;96749.91;;;11.92;73.25
64876;BME280;51369;49.862;9.908;2023-04-01T08:40:55;96758.34;;;11.88;73.76
64876;BME280;51369;49.862;9.908;2023-04-01T08:43:53;96748.72;;;11.84;74.33
64876;BME280;51369;49.862;9.908;2023-04-01T08:46:49;96760.94;;;11.77;73.47
64876;BME280;51369;49.862;9.908;2023-04-01T08:55:25;96751.34;;;11.60;75.80
64876;BME280;51369;49.862;9.908;2023-04-01T08:58:23;96759.34;;;11.61;75.65
64876;BME280;51369;49.862;9.908;2023-04-01T09:01:34;96752.22;;;11.60;76.25
64876;BME280;51369;49.862;9.908;2023-04-01T09:07:08;96762.06;;;11.61;76.82
64876;BME280;51369;49.862;9.908;2023-04-01T09:10:11;96757.28;;;11.65;77.55
64876;BME280;51369;49.862;9.908;2023-04-01T09:21:19;96763.75;;;11.75;76.34
64876;BME280;51369;49.862;9.908;2023-04-01T09:24:08;96756.19;;;11.80;76.11
64876;BME280;51369;49.862;9.908;2023-04-01T09:35:36;96753.88;;;11.99;74.71
64876;BME280;51369;49.862;9.908;2023-04-01T09:38:29;96746.16;;;12.06;76.45
64876;BME280;51369;49.862;9.908;2023-04-01T09:40:57;96749.00;;;12.16;76.50
64876;BME280;51369;49.862;9.908;2023-04-01T09:44:04;96757.75;;;12.19;76.49
64876;BME280;51369;49.862;9.908;2023-04-01T10:06:47;96747.25;;;12.62;75.81
64876;BME280;51369;49.862;9.908;2023-04-01T10:09:28;96761.47;;;12.77;75.48
64876;BME280;51369;49.862;9.908;2023-04-01T10:14:41;96751.94;;;13.07;75.25
64876;BME280;51369;49.862;9.908;2023-04-01T10:49:24;96755.44;;;13.31;72.73
64876;BME280;51369;49.862;9.908;2023-04-01T10:55:08;96758.28;;;13.52;72.91
64876;BME280;51369;49.862;9.908;2023-04-01T11:01:35;96756.94;;;13.57;72.66
64876;BME280;51369;49.862;9.908;2023-04-01T11:04:49;96753.00;;;13.61;73.92
64876;BME280;51369;49.862;9.908;2023-04-01T11:13:25;96746.97;;;13.58;74.60
64876;BME280;51369;49.862;9.908;2023-04-01T11:19:03;96753.00;;;13.61;75.42
64876;BME280;51369;49.862;9.908;2023-04-01T11:25:16;96750.03;;;13.64;73.88
64876;BME280;51369;49.862;9.908;2023-04-01T11:33:55;96767.06;;;13.66;75.10
64876;BME280;51369;49.862;9.908;2023-04-01T11:39:24;96755.97;;;13.70;75.85
64876;BME280;51369;49.862;9.908;2023-04-01T11:45:07;96766.81;;;13.70;74.27
64876;BME280;51369;49.862;9.908;2023-04-01T11:47:48;96766.06;;;13.67;75.18
64876;BME280;51369;49.862;9.908;2023-04-01T11:53:34;96767.41;;;13.62;75.04
64876;BME280;51369;49.862;9.908;2023-04-01T11:56:02;96764.22;;;13.57;75.68
64876;BME280;51369;49.862;9.908;2023-04-01T12:06:44;96787.63;;;13.47;76.46
64876;BME280;51369;49.862;9.908;2023-04-01T12:09:24;96776.78;;;13.47;77.69
64876;BME280;51369;49.862;9.908;2023-04-01T12:14:44;96788.72;;;13.44;77.96
64876;BME280;51369;49.862;9.908;2023-04-01T12:17:39;96787.75;;;13.45;78.44
64876;BME280;51369;49.862;9.908;2023-04-01T12:28:08;96789.47;;;13.46;77.46
64876;BME280;51369;49.862;9.908;2023-04-01T12:36:32;96791.66;;;13.30;77.03
64876;BME280;51369;49.862;9.908;2023-04-01T12:47:22;96793.81;;;13.14;78.43
64876;BME280;51369;49.862;9.908;2023-04-01T12:50:16;96788.53;;;13.12;78.09
64876;BME280;51369;49.862;9.908;2023-04-01T12:53:16;96797.88;;;13.08;78.40
64876;BME280;51369;49.862;9.908;2023-04-01T12:55:48;96806.63;;;13.12;77.70
64876;BME280;51369;49.862;9.908;2023-04-01T13:09:35;96800.69;;;13.42;78.72
64876;BME280;51369;49.862;9.908;2023-04-01T13:23:34;96816.69;;;13.45;76.03
64876;BME280;51369;49.862;9.908;2023-04-01T13:26:18;96813.13;;;13.44;76.42
64876;BME280;51369;49.862;9.908;2023-04-01T13:28:47;96808.31;;;13.48;76.95
64876;BME280;51369;49.862;9.908;2023-04-01T13:31:28;96815.59;;;13.47;77.15
64876;BME280;51369;49.862;9.908;2023-04-01T13:34:19;96831.97;;;13.46;76.61
64876;BME280;51369;49.862;9.908;2023-04-01T13:40:28;96820.41;;;13.44;77.54
64876;BME280;51369;49.862;9.908;2023-04-01T13:45:16;96823.97;;;13.44;77.76
64876;BME280;51369;49.862;9.908;2023-04-01T13:56:50;96827.94;;;13.51;78.46
64876;BME280;51369;49.862;9.908;2023-04-01T14:10:43;96825.84;;;13.55;79.30
64876;BME280;51369;49.862;9.908;2023-04-01T14:22:17;96827.31;;;13.59;79.56
64876;BME280;51369;49.862;9.908;2023-04-01T14:28:03;96832.88;;;13.57;78.86
64876;BME280;51369;49.862;9.908;2023-04-01T14:41:57;96840.78;;;13.83;77.19
64876;BME280;51369;49.862;9.908;2023-04-01T14:50:08;96853.84;;;13.66;76.50
64876;BME280;51369;49.862;9.908;2023-04-01T14:52:46;96852.22;;;13.64;76.84
64876;BME280;51369;49.862;9.908;2023-04-01T14:57:59;96851.97;;;13.56;76.89
64876;BME280;51369;49.862;9.908;2023-04-01T15:00:44;96844.69;;;13.45;75.49
64876;BME280;51369;49.862;9.908;2023-04-01T15:14:42;96852.06;;;13.08;75.20
64876;BME280;51369;49.862;9.908;2023-04-01T15:19:58;96865.03;;;12.92;77.82
64876;BME280;51369;49.862;9.908;2023-04-01T15:25:15;96868.44;;;12.83;78.35
64876;BME280;51369;49.862;9.908;2023-04-01T15:30:48;96871.75;;;12.75;77.12
64876;BME280;51369;49.862;9.908;2023-04-01T15:33:28;96882.56;;;12.75;78.43
64876;BME280;51369;49.862;9.908;2023-04-01T15:38:58;96889.25;;;12.82;79.31
64876;BME280;51369;49.862;9.908;2023-04-01T15:55:31;96896.28;;;12.85;77.13
64876;BME280;51369;49.862;9.908;2023-04-01T15:58:14;96900.31;;;12.79;76.90
64876;BME280;51369;49.862;9.908;2023-04-01T16:00:52;96900.53;;;12.76;77.97
64876;BME280;51369;49.862;9.908;2023-04-01T16:03:36;96905.31;;;12.73;78.04
64876;BME280;51369;49.862;9.908;2023-04-01T16:11:16;96912.06;;;12.67;78.60
64876;BME280;51369;49.862;9.908;2023-04-01T16:16:31;96920.31;;;12.65;79.16
64876;BME280;51369;49.862;9.908;2023-04-01T16:22:22;96917.72;;;12.64;79.21
64876;BME280;51369;49.862;9.908;2023-04-01T16:25:20;96921.63;;;12.60;78.20
64876;BME280;51369;49.862;9.908;2023-04-01T16:28:18;96924.66;;;12.55;77.82
64876;BME280;51369;49.862;9.908;2023-04-01T16:31:00;96927.59;;;12.52;77.41
64876;BME280;51369;49.862;9.908;2023-04-01T16:33:44;96922.31;;;12.51;77.91
64876;BME280;51369;49.862;9.908;2023-04-01T16:38:52;96936.41;;;12.43;77.38
64876;BME280;51369;49.862;9.908;2023-04-01T16:41:25;96934.13;;;12.37;77.99
64876;BME280;51369;49.862;9.908;2023-04-01T16:44:18;96946.16;;;12.33;77.87
64876;BME280;51369;49.862;9.908;2023-04-01T16:47:14;96942.81;;;12.29;77.78
64876;BME280;51369;49.862;9.908;2023-04-01T16:49:47;96943.91;;;12.27;77.81
64876;BME280;51369;49.862;9.908;2023-04-01T16:52:17;96957.66;;;12.24;77.63
64876;BME280;51369;49.862;9.908;2023-04-01T16:55:12;96956.13;;;12.20;78.34
64876;BME280;51369;49.862;9.908;2023-04-01T16:57:45;96962.63;;;12.17;78.50
64876;BME280;51369;49.862;9.908;2023-04-01T17:03:04;96953.56;;;12.05;78.49
64876;BME280;51369;49.862;9.908;2023-04-01T17:05:42;96964.50;;;12.04;79.51
64876;BME280;51369;49.862;9.908;2023-04-01T17:08:37;96964.84;;;11.99;79.45
64876;BME280;51369;49.862;9.908;2023-04-01T17:11:18;96968.63;;;11.97;78.96
64876;BME280;51369;49.862;9.908;2023-04-01T17:13:52;96974.25;;;11.94;79.93
64876;BME280;51369;49.862;9.908;2023-04-01T17:20:11;96980.19;;;11.86;79.55
64876;BME280;51369;49.862;9.908;2023-04-01T17:25:34;96978.69;;;11.82;79.85
64876;BME280;51369;49.862;9.908;2023-04-01T17:36:33;96990.34;;;11.83;78.25
64876;BME280;51369;49.862;9.908;2023-04-01T17:39:16;96994.91;;;11.82;78.55
64876;BME280;51369;49.862;9.908;2023-04-01T17:44:34;97008.53;;;11.81;78.79
64876;BME280;51369;49.862;9.908;2023-04-01T17:49:55;97016.28;;;11.72;78.36
64876;BME280;51369;49.862;9.908;2023-04-01T17:52:31;97025.47;;;11.70;78.30
64876;BME280;51369;49.862;9.908;2023-04-01T18:08:12;97038.38;;;11.52;78.66
64876;BME280;51369;49.862;9.908;2023-04-01T18:13:50;97065.72;;;11.48;78.75
64876;BME280;51369;49.862;9.908;2023-04-01T18:21:47;97072.63;;;11.39;78.83
64876;BME280;51369;49.862;9.908;2023-04-01T18:24:18;97075.41;;;11.37;79.04
64876;BME280;51369;49.862;9.908;2023-04-01T18:29:35;97088.16;;;11.35;79.02
64876;BME280;51369;49.862;9.908;2023-04-01T18:32:31;97096.56;;;11.31;79.41
64876;BME280;51369;49.862;9.908;2023-04-01T18:35:21;97094.84;;;11.30;79.06
64876;BME280;51369;49.862;9.908;2023-04-01T18:38:16;97104.78;;;11.29;79.49
64876;BME280;51369;49.862;9.908;2023-04-01T18:43:32;97113.94;;;11.27;79.57
64876;BME280;51369;49.862;9.908;2023-04-01T18:46:30;97105.94;;;11.25;80.28
64876;BME280;51369;49.862;9.908;2023-04-01T18:49:12;97116.84;;;11.24;79.25
64876;BME280;51369;49.862;9.908;2023-04-01T18:51:46;97116.84;;;11.24;79.30
64876;BME280;51369;49.862;9.908;2023-04-01T18:54:21;97131.31;;;11.23;80.00
64876;BME280;51369;49.862;9.908;2023-04-01T18:56:49;97117.81;;;11.23;78.73
64876;BME280;51369;49.862;9.908;2023-04-01T18:59:39;97131.53;;;11.20;79.70
64876;BME280;51369;49.862;9.908;2023-04-01T19:02:32;97128.94;;;11.18;79.65
64876;BME280;51369;49.862;9.908;2023-04-01T19:13:20;97147.25;;;11.13;80.48
64876;BME280;51369;49.862;9.908;2023-04-01T19:16:12;97145.44;;;11.14;80.71
64876;BME280;51369;49.862;9.908;2023-04-01T19:19:02;97145.53;;;11.12;80.57
64876;BME280;51369;49.862;9.908;2023-04-01T19:21:47;97144.66;;;11.12;80.21
64876;BME280;51369;49.862;9.908;2023-04-01T19:24:33;97148.31;;;11.11;79.80
64876;BME280;51369;49.862;9.908;2023-04-01T19:29:49;97156.53;;;11.09;79.60
64876;BME280;51369;49.862;9.908;2023-04-01T19:35:29;97160.28;;;11.06;79.75
64876;BME280;51369;49.862;9.908;2023-04-01T19:40:53;97155.75;;;11.07;80.08
64876;BME280;51369;49.862;9.908;2023-04-01T19:46:16;97165.78;;;11.05;80.17
64876;BME280;51369;49.862;9.908;2023-04-01T19:49:12;97161.47;;;11.02;79.59
64876;BME280;51369;49.862;9.908;2023-04-01T19:51:42;97172.25;;;11.02;80.57
64876;BME280;51369;49.862;9.908;2023-04-01T19:54:48;97170.72;;;10.98;79.44
64876;BME280;51369;49.862;9.908;2023-04-01T20:00:15;97172.44;;;10.99;80.20
64876;BME280;51369;49.862;9.908;2023-04-01T20:03:00;97178.63;;;11.01;79.80
64876;BME280;51369;49.862;9.908;2023-04-01T20:08:10;97197.72;;;10.98;79.52
64876;BME280;51369;49.862;9.908;2023-04-01T20:10:51;97195.13;;;10.97;79.70
64876;BME280;51369;49.862;9.908;2023-04-01T20:13:35;97196.00;;;10.97;79.52
64876;BME280;51369;49.862;9.908;2023-04-01T20:16:06;97199.47;;;10.99;79.27
64876;BME280;51369;49.862;9.908;2023-04-01T20:18:45;97205.91;;;10.97;80.07
64876;BME280;51369;49.862;9.908;2023-04-01T20:21:27;97211.31;;;10.97;80.69
64876;BME280;51369;49.862;9.908;2023-04-01T20:24:34;97212.19;;;10.97;79.91
64876;BME280;51369;49.862;9.908;2023-04-01T20:27:09;97213.94;;;10.98;80.32
64876;BME280;51369;49.862;9.908;2023-04-01T20:30:08;97211.31;;;10.97;79.94
64876;BME280;51369;49.862;9.908;2023-04-01T20:32:53;97225.59;;;10.99;79.66
64876;BME280;51369;49.862;9.908;2023-04-01T20:38:24;97217.41;;;11.00;79.97
64876;BME280;51369;49.862;9.908;2023-04-01T20:41:06;97221.16;;;10.98;79.71
64876;BME280;51369;49.862;9.908;2023-04-01T20:46:19;97223.00;;;10.97;79.46
64876;BME280;51369;49.862;9.908;2023-04-01T20:49:01;97224.72;;;10.98;79.05
64876;BME280;51369;49.862;9.908;2023-04-01T20:51:37;97238.22;;;10.98;79.56
64876;BME280;51369;49.862;9.908;2023-04-01T20:59:45;97247.50;;;10.94;78.91
64876;BME280;51369;49.862;9.908;2023-04-01T21:08:06;97248.56;;;10.92;79.70
64876;BME280;51369;49.862;9.908;2023-04-01T21:10:46;97247.69;;;10.91;79.40
64876;BME280;51369;49.862;9.908;2023-04-01T21:16:22;97266.78;;;10.88;80.18
64876;BME280;51369;49.862;9.908;2023-04-01T21:19:03;97263.09;;;10.89;80.04
64876;BME280;51369;49.862;9.908;2023-04-01T21:21:46;97267.63;;;10.89;79.82
64876;BME280;51369;49.862;9.908;2023-04-01T21:24:39;97264.16;;;10.87;79.67
64876;BME280;51369;49.862;9.908;2023-04-01T21:30:13;97276.78;;;10.86;79.10
64876;BME280;51369;49.862;9.908;2023-04-01T21:33:50;97286.63;;;10.87;80.32